sensor_id;sensor_type;location;lat;lon;timestamp;temperature;humidity
6008;DHT22;3032;49.484;11.112;2024-03-08T00:01:40;1.80;99.90
6008;DHT22;3032;49.484;11.112;2024-03-08T00:04:06;1.80;99.90
6008;DHT22;3032;49.484;11.112;2024-03-08T00:06:32;1.70;99.90
6008;DHT22;3032;49.484;11.112;2024-03-08T00:08:57;1.60;99.90
6008;DHT22;3032;49.484;11.112;2024-03-08T00:11:23;1.70;99.90
6008;DHT22;3032;49.484;11.112;2024-03-08T00:13:52;1.80;99.90
6008;DHT22;3032;49.484;11.112;2024-03-08T00:16:18;1.80;99.90
6008;DHT22;3032;49.484;11.112;2024-03-08T00:18:48;1.40;99.90
6008;DHT22;3032;49.484;11.112;2024-03-08T00:21:14;1.70;99.90
6008;DHT22;3032;49.484;11.112;2024-03-08T00:23:44;1.70;99.90
6008;DHT22;3032;49.484;11.112;2024-03-08T00:26:10;1.80;99.90
6008;DHT22;3032;49.484;11.112;2024-03-08T00:28:36;2.00;99.90
6008;DHT22;3032;49.484;11.112;2024-03-08T00:31:03;1.70;99.90
6008;DHT22;3032;49.484;11.112;2024-03-08T00:33:30;1.60;99.90
6008;DHT22;3032;49.484;11.112;2024-03-08T00:35:56;1.50;99.90
6008;DHT22;3032;49.484;11.112;2024-03-08T00:38:23;1.50;99.90
6008;DHT22;3032;49.484;11.112;2024-03-08T00:40:48;1.50;99.90
6008;DHT22;3032;49.484;11.112;2024-03-08T00:43:14;1.50;99.90
6008;DHT22;3032;49.484;11.112;2024-03-08T00:45:41;2.10;99.90
6008;DHT22;3032;49.484;11.112;2024-03-08T00:48:08;1.70;99.90
6008;DHT22;3032;49.484;11.112;2024-03-08T00:50:34;1.70;99.90
6008;DHT22;3032;49.484;11.112;2024-03-08T00:53:00;1.70;99.90
6008;DHT22;3032;49.484;11.112;2024-03-08T00:55:27;1.70;99.90
6008;DHT22;3032;49.484;11.112;2024-03-08T00:57:55;1.50;99.90
6008;DHT22;3032;49.484;11.112;2024-03-08T01:00:21;1.50;99.90
6008;DHT22;3032;49.484;11.112;2024-03-08T01:02:47;1.70;99.90
6008;DHT22;3032;49.484;11.112;2024-03-08T01:05:13;1.70;99.90
6008;DHT22;3032;49.484;11.112;2024-03-08T01:07:38;1.60;99.90
6008;DHT22;3032;49.484;11.112;2024-03-08T01:10:04;1.60;99.90
6008;DHT22;3032;49.484;11.112;2024-03-08T01:12:35;1.60;99.90
6008;DHT22;3032;49.484;11.112;2024-03-08T01:15:01;1.60;99.90
6008;DHT22;3032;49.484;11.112;2024-03-08T01:17:28;1.60;99.90
6008;DHT22;3032;49.484;11.112;2024-03-08T01:19:54;1.50;99.90
6008;DHT22;3032;49.484;11.112;2024-03-08T01:22:20;1.60;99.90
6008;DHT22;3032;49.484;11.112;2024-03-08T01:24:45;1.60;99.90
6008;DHT22;3032;49.484;11.112;2024-03-08T01:27:11;1.50;99.90
6008;DHT22;3032;49.484;11.112;2024-03-08T01:29:37;1.50;99.90
6008;DHT22;3032;49.484;11.112;2024-03-08T01:32:03;1.50;99.90
6008;DHT22;3032;49.484;11.112;2024-03-08T01:34:29;1.60;99.90
6008;DHT22;3032;49.484;11.112;2024-03-08T01:36:54;1.50;99.90
6008;DHT22;3032;49.484;11.112;2024-03-08T01:39:23;1.40;99.90
6008;DHT22;3032;49.484;11.112;2024-03-08T01:41:48;1.30;99.90
6008;DHT22;3032;49.484;11.112;2024-03-08T01:44:14;1.30;99.90
6008;DHT22;3032;49.484;11.112;2024-03-08T01:46:47;1.20;99.90
6008;DHT22;3032;49.484;11.112;2024-03-08T01:49:13;1.20;99.90
6008;DHT22;3032;49.484;11.112;2024-03-08T01:51:41;1.20;99.90
6008;DHT22;3032;49.484;11.112;2024-03-08T01:54:07;1.20;99.90
6008;DHT22;3032;49.484;11.112;2024-03-08T01:56:36;1.20;99.90
6008;DHT22;3032;49.484;11.112;2024-03-08T01:59:03;1.10;99.90
6008;DHT22;3032;49.484;11.112;2024-03-08T02:01:29;1.10;99.90
6008;DHT22;3032;49.484;11.112;2024-03-08T02:03:54;1.10;99.90
6008;DHT22;3032;49.484;11.112;2024-03-08T02:06:20;1.10;99.90
6008;DHT22;3032;49.484;11.112;2024-03-08T02:08:46;1.20;99.90
6008;DHT22;3032;49.484;11.112;2024-03-08T02:11:12;1.10;99.90
6008;DHT22;3032;49.484;11.112;2024-03-08T02:13:38;1.10;99.90
6008;DHT22;3032;49.484;11.112;2024-03-08T02:16:04;1.00;99.90
6008;DHT22;3032;49.484;11.112;2024-03-08T02:18:33;1.10;99.90
6008;DHT22;3032;49.484;11.112;2024-03-08T02:21:01;1.10;99.90
6008;DHT22;3032;49.484;11.112;2024-03-08T02:23:28;1.20;99.90
6008;DHT22;3032;49.484;11.112;2024-03-08T02:25:55;1.30;99.90
6008;DHT22;3032;49.484;11.112;2024-03-08T02:28:22;1.30;99.90
6008;DHT22;3032;49.484;11.112;2024-03-08T02:30:49;1.40;99.90
6008;DHT22;3032;49.484;11.112;2024-03-08T02:33:16;1.30;99.90
6008;DHT22;3032;49.484;11.112;2024-03-08T02:35:43;1.10;99.90
6008;DHT22;3032;49.484;11.112;2024-03-08T02:38:12;1.20;99.90
6008;DHT22;3032;49.484;11.112;2024-03-08T02:40:37;1.20;99.90
6008;DHT22;3032;49.484;11.112;2024-03-08T02:43:03;1.30;99.90
6008;DHT22;3032;49.484;11.112;2024-03-08T02:45:30;1.30;99.90
6008;DHT22;3032;49.484;11.112;2024-03-08T02:47:56;1.20;99.90
6008;DHT22;3032;49.484;11.112;2024-03-08T02:50:21;1.10;99.90
6008;DHT22;3032;49.484;11.112;2024-03-08T02:52:48;1.10;99.90
6008;DHT22;3032;49.484;11.112;2024-03-08T02:55:13;1.00;99.90
6008;DHT22;3032;49.484;11.112;2024-03-08T02:57:42;0.80;99.90
6008;DHT22;3032;49.484;11.112;2024-03-08T03:00:09;0.80;99.90
6008;DHT22;3032;49.484;11.112;2024-03-08T03:02:36;0.70;99.90
6008;DHT22;3032;49.484;11.112;2024-03-08T03:05:01;0.90;99.90
6008;DHT22;3032;49.484;11.112;2024-03-08T03:07:34;0.90;99.90
6008;DHT22;3032;49.484;11.112;2024-03-08T03:10:00;1.00;99.90
6008;DHT22;3032;49.484;11.112;2024-03-08T03:12:27;0.80;99.90
6008;DHT22;3032;49.484;11.112;2024-03-08T03:14:52;0.90;99.90
6008;DHT22;3032;49.484;11.112;2024-03-08T03:17:18;0.90;99.90
6008;DHT22;3032;49.484;11.112;2024-03-08T03:19:44;1.00;99.90
6008;DHT22;3032;49.484;11.112;2024-03-08T03:22:09;1.00;99.90
6008;DHT22;3032;49.484;11.112;2024-03-08T03:24:36;1.00;99.90
6008;DHT22;3032;49.484;11.112;2024-03-08T03:27:04;0.90;99.90
6008;DHT22;3032;49.484;11.112;2024-03-08T03:29:36;0.80;99.90
6008;DHT22;3032;49.484;11.112;2024-03-08T03:32:02;0.70;99.90
6008;DHT22;3032;49.484;11.112;2024-03-08T03:34:29;0.70;99.90
6008;DHT22;3032;49.484;11.112;2024-03-08T03:36:54;0.70;99.90
6008;DHT22;3032;49.484;11.112;2024-03-08T03:39:21;0.60;99.90
6008;DHT22;3032;49.484;11.112;2024-03-08T03:41:48;0.60;99.90
6008;DHT22;3032;49.484;11.112;2024-03-08T03:44:17;0.60;99.90
6008;DHT22;3032;49.484;11.112;2024-03-08T03:46:43;0.70;99.90
6008;DHT22;3032;49.484;11.112;2024-03-08T03:49:12;0.70;99.90
6008;DHT22;3032;49.484;11.112;2024-03-08T03:51:37;0.70;99.90
6008;DHT22;3032;49.484;11.112;2024-03-08T03:54:03;0.70;99.90
6008;DHT22;3032;49.484;11.112;2024-03-08T03:56:29;0.70;99.90
6008;DHT22;3032;49.484;11.112;2024-03-08T03:58:55;0.70;99.90
6008;DHT22;3032;49.484;11.112;2024-03-08T04:01:21;0.60;99.90
6008;DHT22;3032;49.484;11.112;2024-03-08T04:03:47;0.70;99.90
6008;DHT22;3032;49.484;11.112;2024-03-08T04:06:13;0.70;99.90
6008;DHT22;3032;49.484;11.112;2024-03-08T04:08:39;0.60;99.90
6008;DHT22;3032;49.484;11.112;2024-03-08T04:11:05;0.60;99.90
6008;DHT22;3032;49.484;11.112;2024-03-08T04:13:30;0.60;99.90
6008;DHT22;3032;49.484;11.112;2024-03-08T04:15:56;0.60;99.90
6008;DHT22;3032;49.484;11.112;2024-03-08T04:18:21;0.70;99.90
6008;DHT22;3032;49.484;11.112;2024-03-08T04:20:47;0.70;99.90
6008;DHT22;3032;49.484;11.112;2024-03-08T04:23:13;0.70;99.90
6008;DHT22;3032;49.484;11.112;2024-03-08T04:25:38;0.60;99.90
6008;DHT22;3032;49.484;11.112;2024-03-08T04:28:04;0.60;99.90
6008;DHT22;3032;49.484;11.112;2024-03-08T04:30:29;0.70;99.90
6008;DHT22;3032;49.484;11.112;2024-03-08T04:32:55;0.60;99.90
6008;DHT22;3032;49.484;11.112;2024-03-08T04:35:21;0.60;99.90
6008;DHT22;3032;49.484;11.112;2024-03-08T04:37:47;0.60;99.90
6008;DHT22;3032;49.484;11.112;2024-03-08T04:40:12;0.60;99.90
6008;DHT22;3032;49.484;11.112;2024-03-08T04:42:39;0.50;99.90
6008;DHT22;3032;49.484;11.112;2024-03-08T04:45:05;0.50;99.90
6008;DHT22;3032;49.484;11.112;2024-03-08T04:47:33;0.50;99.90
6008;DHT22;3032;49.484;11.112;2024-03-08T04:49:58;0.60;99.90
6008;DHT22;3032;49.484;11.112;2024-03-08T04:52:25;0.60;99.90
6008;DHT22;3032;49.484;11.112;2024-03-08T04:54:51;0.70;99.90
6008;DHT22;3032;49.484;11.112;2024-03-08T04:57:16;0.70;99.90
6008;DHT22;3032;49.484;11.112;2024-03-08T04:59:43;0.70;99.90
6008;DHT22;3032;49.484;11.112;2024-03-08T05:02:09;0.80;99.90
6008;DHT22;3032;49.484;11.112;2024-03-08T05:04:34;0.80;99.90
6008;DHT22;3032;49.484;11.112;2024-03-08T05:07:01;0.70;99.90
6008;DHT22;3032;49.484;11.112;2024-03-08T05:09:27;0.80;99.90
6008;DHT22;3032;49.484;11.112;2024-03-08T05:11:54;0.70;99.90
6008;DHT22;3032;49.484;11.112;2024-03-08T05:14:20;0.80;99.90
6008;DHT22;3032;49.484;11.112;2024-03-08T05:16:46;0.80;99.90
6008;DHT22;3032;49.484;11.112;2024-03-08T05:19:19;0.80;99.90
6008;DHT22;3032;49.484;11.112;2024-03-08T05:21:46;0.70;99.90
6008;DHT22;3032;49.484;11.112;2024-03-08T05:24:12;0.80;99.90
6008;DHT22;3032;49.484;11.112;2024-03-08T05:26:39;0.80;99.90
6008;DHT22;3032;49.484;11.112;2024-03-08T05:29:04;0.80;99.90
6008;DHT22;3032;49.484;11.112;2024-03-08T05:31:47;0.70;99.90
6008;DHT22;3032;49.484;11.112;2024-03-08T05:34:13;0.70;99.90
6008;DHT22;3032;49.484;11.112;2024-03-08T05:36:40;0.60;99.90
6008;DHT22;3032;49.484;11.112;2024-03-08T05:39:06;0.60;99.90
6008;DHT22;3032;49.484;11.112;2024-03-08T05:41:32;0.70;99.90
6008;DHT22;3032;49.484;11.112;2024-03-08T05:43:58;0.70;99.90
6008;DHT22;3032;49.484;11.112;2024-03-08T05:46:23;0.80;99.90
6008;DHT22;3032;49.484;11.112;2024-03-08T05:48:49;0.80;99.90
6008;DHT22;3032;49.484;11.112;2024-03-08T05:51:14;0.80;99.90
6008;DHT22;3032;49.484;11.112;2024-03-08T05:53:40;0.70;99.90
6008;DHT22;3032;49.484;11.112;2024-03-08T05:56:06;0.80;99.90
6008;DHT22;3032;49.484;11.112;2024-03-08T05:58:31;0.80;99.90
6008;DHT22;3032;49.484;11.112;2024-03-08T06:00:57;0.80;99.90
6008;DHT22;3032;49.484;11.112;2024-03-08T06:03:22;0.90;99.90
6008;DHT22;3032;49.484;11.112;2024-03-08T06:05:49;0.70;99.90
6008;DHT22;3032;49.484;11.112;2024-03-08T06:08:15;0.60;99.90
6008;DHT22;3032;49.484;11.112;2024-03-08T06:10:40;0.70;99.90
6008;DHT22;3032;49.484;11.112;2024-03-08T06:13:06;0.70;99.90
6008;DHT22;3032;49.484;11.112;2024-03-08T06:15:32;0.80;99.90
6008;DHT22;3032;49.484;11.112;2024-03-08T06:17:57;0.90;99.90
6008;DHT22;3032;49.484;11.112;2024-03-08T06:20:23;0.90;99.90
6008;DHT22;3032;49.484;11.112;2024-03-08T06:22:58;1.10;99.90
6008;DHT22;3032;49.484;11.112;2024-03-08T06:25:23;1.20;99.90
6008;DHT22;3032;49.484;11.112;2024-03-08T06:27:49;1.60;99.90
6008;DHT22;3032;49.484;11.112;2024-03-08T06:30:15;2.30;99.90
6008;DHT22;3032;49.484;11.112;2024-03-08T06:32:41;3.00;99.90
6008;DHT22;3032;49.484;11.112;2024-03-08T06:35:08;3.70;99.90
6008;DHT22;3032;49.484;11.112;2024-03-08T06:37:35;3.90;99.90
6008;DHT22;3032;49.484;11.112;2024-03-08T06:40:01;4.10;99.90
6008;DHT22;3032;49.484;11.112;2024-03-08T06:42:28;4.70;99.90
6008;DHT22;3032;49.484;11.112;2024-03-08T06:44:54;5.70;99.90
6008;DHT22;3032;49.484;11.112;2024-03-08T06:47:25;5.40;99.90
6008;DHT22;3032;49.484;11.112;2024-03-08T06:49:51;5.20;99.90
6008;DHT22;3032;49.484;11.112;2024-03-08T06:52:17;5.60;99.90
6008;DHT22;3032;49.484;11.112;2024-03-08T06:54:43;5.80;99.90
6008;DHT22;3032;49.484;11.112;2024-03-08T06:57:08;5.80;99.90
6008;DHT22;3032;49.484;11.112;2024-03-08T06:59:36;6.00;99.90
6008;DHT22;3032;49.484;11.112;2024-03-08T07:02:02;6.00;99.90
6008;DHT22;3032;49.484;11.112;2024-03-08T07:04:28;6.00;99.90
6008;DHT22;3032;49.484;11.112;2024-03-08T07:06:55;6.20;99.90
6008;DHT22;3032;49.484;11.112;2024-03-08T07:09:23;6.70;99.90
6008;DHT22;3032;49.484;11.112;2024-03-08T07:11:48;6.70;99.90
6008;DHT22;3032;49.484;11.112;2024-03-08T07:14:23;7.60;99.90
6008;DHT22;3032;49.484;11.112;2024-03-08T07:16:49;7.80;99.90
6008;DHT22;3032;49.484;11.112;2024-03-08T07:19:15;7.10;99.90
6008;DHT22;3032;49.484;11.112;2024-03-08T07:21:41;7.80;99.90
6008;DHT22;3032;49.484;11.112;2024-03-08T07:24:07;8.60;99.90
6008;DHT22;3032;49.484;11.112;2024-03-08T07:26:45;9.00;99.90
6008;DHT22;3032;49.484;11.112;2024-03-08T07:29:15;9.30;99.60
6008;DHT22;3032;49.484;11.112;2024-03-08T07:31:40;10.00;98.10
6008;DHT22;3032;49.484;11.112;2024-03-08T07:34:36;10.20;97.00
6008;DHT22;3032;49.484;11.112;2024-03-08T07:37:06;9.80;97.70
6008;DHT22;3032;49.484;11.112;2024-03-08T07:39:40;9.60;97.60
6008;DHT22;3032;49.484;11.112;2024-03-08T07:42:09;9.60;97.60
6008;DHT22;3032;49.484;11.112;2024-03-08T07:44:38;9.10;97.90
6008;DHT22;3032;49.484;11.112;2024-03-08T07:47:06;8.40;99.10
6008;DHT22;3032;49.484;11.112;2024-03-08T07:49:35;7.90;99.50
6008;DHT22;3032;49.484;11.112;2024-03-08T07:52:08;8.10;99.90
6008;DHT22;3032;49.484;11.112;2024-03-08T07:54:34;8.70;99.40
6008;DHT22;3032;49.484;11.112;2024-03-08T07:57:03;9.10;98.70
6008;DHT22;3032;49.484;11.112;2024-03-08T07:59:38;9.00;98.40
6008;DHT22;3032;49.484;11.112;2024-03-08T08:02:07;9.20;98.40
6008;DHT22;3032;49.484;11.112;2024-03-08T08:04:41;9.20;98.30
6008;DHT22;3032;49.484;11.112;2024-03-08T08:07:16;10.60;96.30
6008;DHT22;3032;49.484;11.112;2024-03-08T08:09:56;10.80;95.20
6008;DHT22;3032;49.484;11.112;2024-03-08T08:12:22;9.90;95.80
6008;DHT22;3032;49.484;11.112;2024-03-08T08:14:57;9.90;96.30
6008;DHT22;3032;49.484;11.112;2024-03-08T08:17:31;10.20;95.60
6008;DHT22;3032;49.484;11.112;2024-03-08T08:20:03;11.10;94.70
6008;DHT22;3032;49.484;11.112;2024-03-08T08:22:35;11.00;93.90
6008;DHT22;3032;49.484;11.112;2024-03-08T08:25:09;10.30;94.50
6008;DHT22;3032;49.484;11.112;2024-03-08T08:27:41;10.80;94.60
6008;DHT22;3032;49.484;11.112;2024-03-08T08:30:29;12.30;93.20
6008;DHT22;3032;49.484;11.112;2024-03-08T08:33:13;12.70;91.30
6008;DHT22;3032;49.484;11.112;2024-03-08T08:38:39;13.30;88.00
6008;DHT22;3032;49.484;11.112;2024-03-08T08:41:18;13.90;87.90
6008;DHT22;3032;49.484;11.112;2024-03-08T08:44:00;14.40;83.90
6008;DHT22;3032;49.484;11.112;2024-03-08T08:46:26;15.30;82.30
6008;DHT22;3032;49.484;11.112;2024-03-08T08:49:02;15.30;78.70
6008;DHT22;3032;49.484;11.112;2024-03-08T08:51:49;14.30;79.70
6008;DHT22;3032;49.484;11.112;2024-03-08T08:54:17;13.50;82.50
6008;DHT22;3032;49.484;11.112;2024-03-08T08:56:49;14.30;82.00
6008;DHT22;3032;49.484;11.112;2024-03-08T08:59:30;13.40;81.10
6008;DHT22;3032;49.484;11.112;2024-03-08T09:02:19;13.90;81.30
6008;DHT22;3032;49.484;11.112;2024-03-08T09:04:46;13.00;83.00
6008;DHT22;3032;49.484;11.112;2024-03-08T09:07:21;12.60;83.10
6008;DHT22;3032;49.484;11.112;2024-03-08T09:10:08;12.70;82.90
6008;DHT22;3032;49.484;11.112;2024-03-08T09:12:44;13.40;82.40
6008;DHT22;3032;49.484;11.112;2024-03-08T09:16:01;13.80;80.60
6008;DHT22;3032;49.484;11.112;2024-03-08T09:18:31;12.90;78.50
6008;DHT22;3032;49.484;11.112;2024-03-08T09:21:01;12.80;80.90
6008;DHT22;3032;49.484;11.112;2024-03-08T09:23:30;13.70;79.10
6008;DHT22;3032;49.484;11.112;2024-03-08T09:26:03;14.10;77.90
6008;DHT22;3032;49.484;11.112;2024-03-08T09:28:38;13.60;77.10
6008;DHT22;3032;49.484;11.112;2024-03-08T09:31:16;13.30;78.70
6008;DHT22;3032;49.484;11.112;2024-03-08T09:33:48;14.00;77.20
6008;DHT22;3032;49.484;11.112;2024-03-08T09:36:23;13.80;75.40
6008;DHT22;3032;49.484;11.112;2024-03-08T09:39:00;13.30;76.30
6008;DHT22;3032;49.484;11.112;2024-03-08T09:41:29;12.80;78.00
6008;DHT22;3032;49.484;11.112;2024-03-08T09:43:56;13.00;77.10
6008;DHT22;3032;49.484;11.112;2024-03-08T09:46:31;14.30;77.20
6008;DHT22;3032;49.484;11.112;2024-03-08T09:48:57;15.00;74.10
6008;DHT22;3032;49.484;11.112;2024-03-08T09:51:33;13.80;75.20
6008;DHT22;3032;49.484;11.112;2024-03-08T09:54:11;14.20;75.30
6008;DHT22;3032;49.484;11.112;2024-03-08T09:56:39;13.60;78.00
6008;DHT22;3032;49.484;11.112;2024-03-08T09:59:10;13.40;76.90
6008;DHT22;3032;49.484;11.112;2024-03-08T10:02:18;13.30;76.80
6008;DHT22;3032;49.484;11.112;2024-03-08T10:04:53;13.10;78.00
6008;DHT22;3032;49.484;11.112;2024-03-08T10:07:23;12.50;78.30
6008;DHT22;3032;49.484;11.112;2024-03-08T10:10:05;12.80;78.30
6008;DHT22;3032;49.484;11.112;2024-03-08T10:12:43;13.30;76.50
6008;DHT22;3032;49.484;11.112;2024-03-08T10:15:09;13.20;74.90
6008;DHT22;3032;49.484;11.112;2024-03-08T10:17:35;13.20;75.90
6008;DHT22;3032;49.484;11.112;2024-03-08T10:20:15;13.70;75.20
6008;DHT22;3032;49.484;11.112;2024-03-08T10:23:01;13.00;74.30
6008;DHT22;3032;49.484;11.112;2024-03-08T10:25:29;13.00;75.30
6008;DHT22;3032;49.484;11.112;2024-03-08T10:28:16;13.80;74.60
6008;DHT22;3032;49.484;11.112;2024-03-08T10:30:55;14.80;73.10
6008;DHT22;3032;49.484;11.112;2024-03-08T10:33:27;14.80;71.40
6008;DHT22;3032;49.484;11.112;2024-03-08T10:35:56;15.20;70.70
6008;DHT22;3032;49.484;11.112;2024-03-08T10:38:25;14.40;70.80
6008;DHT22;3032;49.484;11.112;2024-03-08T10:40:53;14.40;69.50
6008;DHT22;3032;49.484;11.112;2024-03-08T10:43:25;14.10;69.70
6008;DHT22;3032;49.484;11.112;2024-03-08T10:46:11;13.60;70.20
6008;DHT22;3032;49.484;11.112;2024-03-08T10:48:49;13.90;70.80
6008;DHT22;3032;49.484;11.112;2024-03-08T10:51:22;13.80;70.30
6008;DHT22;3032;49.484;11.112;2024-03-08T10:53:57;14.30;69.30
6008;DHT22;3032;49.484;11.112;2024-03-08T10:56:34;14.60;69.70
6008;DHT22;3032;49.484;11.112;2024-03-08T10:59:00;14.50;69.40
6008;DHT22;3032;49.484;11.112;2024-03-08T11:01:40;14.70;70.00
6008;DHT22;3032;49.484;11.112;2024-03-08T11:04:09;14.50;69.00
6008;DHT22;3032;49.484;11.112;2024-03-08T11:09:32;14.70;68.10
6008;DHT22;3032;49.484;11.112;2024-03-08T11:12:26;14.60;67.00
6008;DHT22;3032;49.484;11.112;2024-03-08T11:15:15;14.00;69.40
6008;DHT22;3032;49.484;11.112;2024-03-08T11:17:52;13.80;68.10
6008;DHT22;3032;49.484;11.112;2024-03-08T11:20:27;13.70;68.80
6008;DHT22;3032;49.484;11.112;2024-03-08T11:23:09;13.80;68.00
6008;DHT22;3032;49.484;11.112;2024-03-08T11:25:49;14.10;69.50
6008;DHT22;3032;49.484;11.112;2024-03-08T11:28:28;14.00;68.10
6008;DHT22;3032;49.484;11.112;2024-03-08T11:33:51;14.30;67.50
6008;DHT22;3032;49.484;11.112;2024-03-08T11:36:35;13.50;68.40
6008;DHT22;3032;49.484;11.112;2024-03-08T11:39:08;13.40;68.40
6008;DHT22;3032;49.484;11.112;2024-03-08T11:41:40;13.30;67.60
6008;DHT22;3032;49.484;11.112;2024-03-08T11:44:14;12.80;69.40
6008;DHT22;3032;49.484;11.112;2024-03-08T11:46:41;12.90;69.10
6008;DHT22;3032;49.484;11.112;2024-03-08T11:49:15;12.70;68.50
6008;DHT22;3032;49.484;11.112;2024-03-08T11:51:52;13.00;68.10
6008;DHT22;3032;49.484;11.112;2024-03-08T11:54:27;13.00;69.30
6008;DHT22;3032;49.484;11.112;2024-03-08T11:59:57;13.00;67.40
6008;DHT22;3032;49.484;11.112;2024-03-08T12:02:27;12.30;66.60
6008;DHT22;3032;49.484;11.112;2024-03-08T12:04:57;12.20;69.00
6008;DHT22;3032;49.484;11.112;2024-03-08T12:07:29;12.60;67.40
6008;DHT22;3032;49.484;11.112;2024-03-08T12:12:53;13.30;68.30
6008;DHT22;3032;49.484;11.112;2024-03-08T12:15:57;12.90;67.50
6008;DHT22;3032;49.484;11.112;2024-03-08T12:18:27;13.40;68.90
6008;DHT22;3032;49.484;11.112;2024-03-08T12:23:37;13.60;67.30
6008;DHT22;3032;49.484;11.112;2024-03-08T12:26:24;13.60;68.30
6008;DHT22;3032;49.484;11.112;2024-03-08T12:28:52;13.60;68.60
6008;DHT22;3032;49.484;11.112;2024-03-08T12:31:18;13.30;68.80
6008;DHT22;3032;49.484;11.112;2024-03-08T12:36:18;13.60;68.80
6008;DHT22;3032;49.484;11.112;2024-03-08T12:38:48;13.80;69.40
6008;DHT22;3032;49.484;11.112;2024-03-08T12:41:18;14.20;66.80
6008;DHT22;3032;49.484;11.112;2024-03-08T12:43:44;14.60;66.90
6008;DHT22;3032;49.484;11.112;2024-03-08T12:46:20;14.10;69.50
6008;DHT22;3032;49.484;11.112;2024-03-08T12:48:46;14.70;71.10
6008;DHT22;3032;49.484;11.112;2024-03-08T12:51:15;14.30;72.00
6008;DHT22;3032;49.484;11.112;2024-03-08T12:53:44;14.50;69.00
6008;DHT22;3032;49.484;11.112;2024-03-08T12:56:11;14.10;71.70
6008;DHT22;3032;49.484;11.112;2024-03-08T12:58:37;14.30;70.70
6008;DHT22;3032;49.484;11.112;2024-03-08T13:01:04;14.60;70.00
6008;DHT22;3032;49.484;11.112;2024-03-08T13:03:36;14.40;69.60
6008;DHT22;3032;49.484;11.112;2024-03-08T13:06:06;14.20;69.70
6008;DHT22;3032;49.484;11.112;2024-03-08T13:08:35;14.00;73.00
6008;DHT22;3032;49.484;11.112;2024-03-08T13:11:07;13.80;69.90
6008;DHT22;3032;49.484;11.112;2024-03-08T13:13:33;13.20;71.40
6008;DHT22;3032;49.484;11.112;2024-03-08T13:16:02;13.20;71.00
6008;DHT22;3032;49.484;11.112;2024-03-08T13:18:28;13.80;72.80
6008;DHT22;3032;49.484;11.112;2024-03-08T13:20:59;14.10;71.00
6008;DHT22;3032;49.484;11.112;2024-03-08T13:23:33;14.10;69.90
6008;DHT22;3032;49.484;11.112;2024-03-08T13:26:13;13.80;70.50
6008;DHT22;3032;49.484;11.112;2024-03-08T13:28:52;13.50;71.00
6008;DHT22;3032;49.484;11.112;2024-03-08T13:31:22;13.80;70.80
6008;DHT22;3032;49.484;11.112;2024-03-08T13:33:57;14.10;70.80
6008;DHT22;3032;49.484;11.112;2024-03-08T13:39:55;13.80;71.30
6008;DHT22;3032;49.484;11.112;2024-03-08T13:42:40;13.80;69.60
6008;DHT22;3032;49.484;11.112;2024-03-08T13:45:08;14.20;69.20
6008;DHT22;3032;49.484;11.112;2024-03-08T13:47:39;14.70;69.40
6008;DHT22;3032;49.484;11.112;2024-03-08T13:50:18;14.30;68.90
6008;DHT22;3032;49.484;11.112;2024-03-08T13:53:13;13.90;71.60
6008;DHT22;3032;49.484;11.112;2024-03-08T13:55:47;14.20;71.40
6008;DHT22;3032;49.484;11.112;2024-03-08T13:58:16;14.00;69.00
6008;DHT22;3032;49.484;11.112;2024-03-08T14:00:46;13.40;71.10
6008;DHT22;3032;49.484;11.112;2024-03-08T14:03:17;13.20;70.20
6008;DHT22;3032;49.484;11.112;2024-03-08T14:05:43;13.00;71.60
6008;DHT22;3032;49.484;11.112;2024-03-08T14:08:17;13.60;70.30
6008;DHT22;3032;49.484;11.112;2024-03-08T14:10:45;13.80;69.90
6008;DHT22;3032;49.484;11.112;2024-03-08T14:13:15;14.00;69.20
6008;DHT22;3032;49.484;11.112;2024-03-08T14:15:44;14.10;69.50
6008;DHT22;3032;49.484;11.112;2024-03-08T14:18:14;14.10;69.00
6008;DHT22;3032;49.484;11.112;2024-03-08T14:20:41;13.90;69.60
6008;DHT22;3032;49.484;11.112;2024-03-08T14:23:10;13.70;68.80
6008;DHT22;3032;49.484;11.112;2024-03-08T14:25:38;13.20;69.80
6008;DHT22;3032;49.484;11.112;2024-03-08T14:28:10;13.30;69.60
6008;DHT22;3032;49.484;11.112;2024-03-08T14:30:43;13.10;70.40
6008;DHT22;3032;49.484;11.112;2024-03-08T14:33:09;13.10;70.30
6008;DHT22;3032;49.484;11.112;2024-03-08T14:35:36;13.50;70.10
6008;DHT22;3032;49.484;11.112;2024-03-08T14:38:09;14.10;69.80
6008;DHT22;3032;49.484;11.112;2024-03-08T14:40:38;14.10;68.50
6008;DHT22;3032;49.484;11.112;2024-03-08T14:43:08;13.70;70.00
6008;DHT22;3032;49.484;11.112;2024-03-08T14:45:45;13.60;71.20
6008;DHT22;3032;49.484;11.112;2024-03-08T14:48:15;14.00;69.90
6008;DHT22;3032;49.484;11.112;2024-03-08T14:50:41;14.20;69.80
6008;DHT22;3032;49.484;11.112;2024-03-08T14:53:09;14.50;68.20
6008;DHT22;3032;49.484;11.112;2024-03-08T14:55:36;14.00;68.80
6008;DHT22;3032;49.484;11.112;2024-03-08T14:58:05;13.50;69.50
6008;DHT22;3032;49.484;11.112;2024-03-08T15:00:31;13.00;70.10
6008;DHT22;3032;49.484;11.112;2024-03-08T15:03:05;12.50;72.10
6008;DHT22;3032;49.484;11.112;2024-03-08T15:05:38;11.90;73.10
6008;DHT22;3032;49.484;11.112;2024-03-08T15:08:08;11.60;73.80
6008;DHT22;3032;49.484;11.112;2024-03-08T15:10:59;11.50;74.60
6008;DHT22;3032;49.484;11.112;2024-03-08T15:13:25;11.70;74.70
6008;DHT22;3032;49.484;11.112;2024-03-08T15:15:59;11.80;75.40
6008;DHT22;3032;49.484;11.112;2024-03-08T15:18:30;11.90;74.70
6008;DHT22;3032;49.484;11.112;2024-03-08T15:21:06;12.00;76.40
6008;DHT22;3032;49.484;11.112;2024-03-08T15:23:36;12.00;75.70
6008;DHT22;3032;49.484;11.112;2024-03-08T15:26:03;12.10;76.50
6008;DHT22;3032;49.484;11.112;2024-03-08T15:28:38;12.40;74.90
6008;DHT22;3032;49.484;11.112;2024-03-08T15:33:56;12.00;75.80
6008;DHT22;3032;49.484;11.112;2024-03-08T15:36:32;12.10;75.90
6008;DHT22;3032;49.484;11.112;2024-03-08T15:39:13;12.00;76.40
6008;DHT22;3032;49.484;11.112;2024-03-08T15:41:44;11.80;76.40
6008;DHT22;3032;49.484;11.112;2024-03-08T15:44:22;12.00;76.90
6008;DHT22;3032;49.484;11.112;2024-03-08T15:46:53;11.90;76.60
6008;DHT22;3032;49.484;11.112;2024-03-08T15:49:19;11.10;78.20
6008;DHT22;3032;49.484;11.112;2024-03-08T15:51:48;11.00;79.10
6008;DHT22;3032;49.484;11.112;2024-03-08T15:54:22;10.80;80.40
6008;DHT22;3032;49.484;11.112;2024-03-08T15:56:51;11.00;80.00
6008;DHT22;3032;49.484;11.112;2024-03-08T15:59:34;11.20;80.40
6008;DHT22;3032;49.484;11.112;2024-03-08T16:02:11;11.10;80.60
6008;DHT22;3032;49.484;11.112;2024-03-08T16:04:41;10.90;81.50
6008;DHT22;3032;49.484;11.112;2024-03-08T16:07:16;10.90;81.50
6008;DHT22;3032;49.484;11.112;2024-03-08T16:09:50;10.90;80.70
6008;DHT22;3032;49.484;11.112;2024-03-08T16:12:22;10.60;82.10
6008;DHT22;3032;49.484;11.112;2024-03-08T16:14:48;10.10;82.60
6008;DHT22;3032;49.484;11.112;2024-03-08T16:17:45;10.00;83.20
6008;DHT22;3032;49.484;11.112;2024-03-08T16:20:17;9.90;85.10
6008;DHT22;3032;49.484;11.112;2024-03-08T16:22:46;9.90;84.60
6008;DHT22;3032;49.484;11.112;2024-03-08T16:25:17;10.10;83.30
6008;DHT22;3032;49.484;11.112;2024-03-08T16:27:45;10.00;83.60
6008;DHT22;3032;49.484;11.112;2024-03-08T16:30:19;9.90;85.10
6008;DHT22;3032;49.484;11.112;2024-03-08T16:32:54;9.80;85.40
6008;DHT22;3032;49.484;11.112;2024-03-08T16:35:26;9.90;85.50
6008;DHT22;3032;49.484;11.112;2024-03-08T16:37:52;10.10;84.10
6008;DHT22;3032;49.484;11.112;2024-03-08T16:40:21;9.80;85.30